sensor_id;sensor_type;location;lat;lon;timestamp;temperature;humidity
21678;DHT22;11000;50.360;7.582;2023-04-15T00:00:16;7.30;99.90
21678;DHT22;11000;50.360;7.582;2023-04-15T00:02:37;7.30;99.90
21678;DHT22;11000;50.360;7.582;2023-04-15T00:04:57;7.20;99.90
21678;DHT22;11000;50.360;7.582;2023-04-15T00:07:20;7.20;99.90
21678;DHT22;11000;50.360;7.582;2023-04-15T00:09:41;7.20;99.90
21678;DHT22;11000;50.360;7.582;2023-04-15T00:12:02;7.20;99.90
21678;DHT22;11000;50.360;7.582;2023-04-15T00:14:23;7.10;99.90
21678;DHT22;11000;50.360;7.582;2023-04-15T00:16:43;7.10;99.90
21678;DHT22;11000;50.360;7.582;2023-04-15T00:19:04;7.10;99.90
21678;DHT22;11000;50.360;7.582;2023-04-15T00:21:24;7.00;99.90
21678;DHT22;11000;50.360;7.582;2023-04-15T00:23:46;7.00;99.90
21678;DHT22;11000;50.360;7.582;2023-04-15T00:26:11;7.00;99.90
21678;DHT22;11000;50.360;7.582;2023-04-15T00:28:32;7.00;99.90
21678;DHT22;11000;50.360;7.582;2023-04-15T00:30:53;7.00;99.90
21678;DHT22;11000;50.360;7.582;2023-04-15T00:33:13;6.90;99.90
21678;DHT22;11000;50.360;7.582;2023-04-15T00:35:36;6.90;99.90
21678;DHT22;11000;50.360;7.582;2023-04-15T00:37:57;6.80;99.90
21678;DHT22;11000;50.360;7.582;2023-04-15T00:40:18;6.80;99.90
21678;DHT22;11000;50.360;7.582;2023-04-15T00:42:40;6.80;99.90
21678;DHT22;11000;50.360;7.582;2023-04-15T00:45:00;6.80;99.90
21678;DHT22;11000;50.360;7.582;2023-04-15T00:47:21;6.70;99.90
21678;DHT22;11000;50.360;7.582;2023-04-15T00:49:42;6.60;99.90
21678;DHT22;11000;50.360;7.582;2023-04-15T00:52:02;6.50;99.90
21678;DHT22;11000;50.360;7.582;2023-04-15T00:54:23;6.30;99.90
21678;DHT22;11000;50.360;7.582;2023-04-15T00:56:44;6.10;99.90
21678;DHT22;11000;50.360;7.582;2023-04-15T00:59:05;5.90;99.90
21678;DHT22;11000;50.360;7.582;2023-04-15T01:01:27;6.00;99.90
21678;DHT22;11000;50.360;7.582;2023-04-15T01:03:49;5.80;99.90
21678;DHT22;11000;50.360;7.582;2023-04-15T01:06:10;5.90;99.90
21678;DHT22;11000;50.360;7.582;2023-04-15T01:08:31;6.10;99.90
21678;DHT22;11000;50.360;7.582;2023-04-15T01:10:53;6.20;99.90
21678;DHT22;11000;50.360;7.582;2023-04-15T01:13:15;6.20;99.90
21678;DHT22;11000;50.360;7.582;2023-04-15T01:15:35;6.30;99.90
21678;DHT22;11000;50.360;7.582;2023-04-15T01:17:58;6.30;99.90
21678;DHT22;11000;50.360;7.582;2023-04-15T01:20:18;6.30;99.90
21678;DHT22;11000;50.360;7.582;2023-04-15T01:22:39;6.30;99.90
21678;DHT22;11000;50.360;7.582;2023-04-15T01:25:05;6.20;99.90
21678;DHT22;11000;50.360;7.582;2023-04-15T01:27:27;6.00;99.90
21678;DHT22;11000;50.360;7.582;2023-04-15T01:29:48;6.10;99.90
21678;DHT22;11000;50.360;7.582;2023-04-15T01:32:08;6.10;99.90
21678;DHT22;11000;50.360;7.582;2023-04-15T01:34:29;6.10;99.90
21678;DHT22;11000;50.360;7.582;2023-04-15T01:36:49;6.20;99.90
21678;DHT22;11000;50.360;7.582;2023-04-15T01:39:10;6.10;99.90
21678;DHT22;11000;50.360;7.582;2023-04-15T01:41:31;6.10;99.90
21678;DHT22;11000;50.360;7.582;2023-04-15T01:43:52;6.10;99.90
21678;DHT22;11000;50.360;7.582;2023-04-15T01:46:13;6.00;99.90
21678;DHT22;11000;50.360;7.582;2023-04-15T01:48:33;6.00;99.90
21678;DHT22;11000;50.360;7.582;2023-04-15T01:50:54;6.00;99.90
21678;DHT22;11000;50.360;7.582;2023-04-15T01:53:17;5.90;99.90
21678;DHT22;11000;50.360;7.582;2023-04-15T01:55:38;5.90;99.90
21678;DHT22;11000;50.360;7.582;2023-04-15T01:57:58;5.90;99.90
21678;DHT22;11000;50.360;7.582;2023-04-15T02:00:19;5.80;99.90
21678;DHT22;11000;50.360;7.582;2023-04-15T02:02:39;5.80;99.90
21678;DHT22;11000;50.360;7.582;2023-04-15T02:05:00;5.90;99.90
21678;DHT22;11000;50.360;7.582;2023-04-15T02:07:21;5.90;99.90
21678;DHT22;11000;50.360;7.582;2023-04-15T02:09:41;5.90;99.90
21678;DHT22;11000;50.360;7.582;2023-04-15T02:12:02;5.90;99.90
21678;DHT22;11000;50.360;7.582;2023-04-15T02:14:23;5.80;99.90
21678;DHT22;11000;50.360;7.582;2023-04-15T02:16:43;5.90;99.90
21678;DHT22;11000;50.360;7.582;2023-04-15T02:19:04;5.90;99.90
21678;DHT22;11000;50.360;7.582;2023-04-15T02:21:28;5.80;99.90
21678;DHT22;11000;50.360;7.582;2023-04-15T02:23:48;5.80;99.90
21678;DHT22;11000;50.360;7.582;2023-04-15T02:26:09;5.80;99.90
21678;DHT22;11000;50.360;7.582;2023-04-15T02:28:29;5.70;99.90
21678;DHT22;11000;50.360;7.582;2023-04-15T02:30:50;5.70;99.90
21678;DHT22;11000;50.360;7.582;2023-04-15T02:33:11;5.70;99.90
21678;DHT22;11000;50.360;7.582;2023-04-15T02:35:32;5.60;99.90
21678;DHT22;11000;50.360;7.582;2023-04-15T02:37:52;5.60;99.90
21678;DHT22;11000;50.360;7.582;2023-04-15T02:40:13;5.60;99.90
21678;DHT22;11000;50.360;7.582;2023-04-15T02:42:34;5.60;99.90
21678;DHT22;11000;50.360;7.582;2023-04-15T02:44:54;5.60;99.90
21678;DHT22;11000;50.360;7.582;2023-04-15T02:47:15;5.60;99.90
21678;DHT22;11000;50.360;7.582;2023-04-15T02:49:37;5.60;99.90
21678;DHT22;11000;50.360;7.582;2023-04-15T02:51:57;5.60;99.90
21678;DHT22;11000;50.360;7.582;2023-04-15T02:54:20;5.50;99.90
21678;DHT22;11000;50.360;7.582;2023-04-15T02:56:42;5.40;99.90
21678;DHT22;11000;50.360;7.582;2023-04-15T02:59:02;5.40;99.90
21678;DHT22;11000;50.360;7.582;2023-04-15T03:01:24;5.30;99.90
21678;DHT22;11000;50.360;7.582;2023-04-15T03:03:45;5.30;99.90
21678;DHT22;11000;50.360;7.582;2023-04-15T03:06:05;5.30;99.90
21678;DHT22;11000;50.360;7.582;2023-04-15T03:08:28;5.30;99.90
21678;DHT22;11000;50.360;7.582;2023-04-15T03:10:48;5.30;99.90
21678;DHT22;11000;50.360;7.582;2023-04-15T03:13:11;5.20;99.90
21678;DHT22;11000;50.360;7.582;2023-04-15T03:15:32;5.20;99.90
21678;DHT22;11000;50.360;7.582;2023-04-15T03:17:52;5.20;99.90
21678;DHT22;11000;50.360;7.582;2023-04-15T03:20:13;5.20;99.90
21678;DHT22;11000;50.360;7.582;2023-04-15T03:22:33;5.20;99.90
21678;DHT22;11000;50.360;7.582;2023-04-15T03:24:54;5.20;99.90
21678;DHT22;11000;50.360;7.582;2023-04-15T03:27:14;5.20;99.90
21678;DHT22;11000;50.360;7.582;2023-04-15T03:29:35;5.20;99.90
21678;DHT22;11000;50.360;7.582;2023-04-15T03:31:55;5.10;99.90
21678;DHT22;11000;50.360;7.582;2023-04-15T03:34:16;5.10;99.90
21678;DHT22;11000;50.360;7.582;2023-04-15T03:36:36;5.00;99.90
21678;DHT22;11000;50.360;7.582;2023-04-15T03:38:57;4.90;99.90
21678;DHT22;11000;50.360;7.582;2023-04-15T03:41:18;4.80;99.90
21678;DHT22;11000;50.360;7.582;2023-04-15T03:43:38;4.90;99.90
21678;DHT22;11000;50.360;7.582;2023-04-15T03:45:59;5.00;99.90
21678;DHT22;11000;50.360;7.582;2023-04-15T03:48:20;4.90;99.90
21678;DHT22;11000;50.360;7.582;2023-04-15T03:50:40;4.90;99.90
21678;DHT22;11000;50.360;7.582;2023-04-15T03:53:01;5.00;99.90
21678;DHT22;11000;50.360;7.582;2023-04-15T03:55:21;5.00;99.90
21678;DHT22;11000;50.360;7.582;2023-04-15T03:57:42;5.00;99.90
21678;DHT22;11000;50.360;7.582;2023-04-15T04:00:04;4.90;99.90
21678;DHT22;11000;50.360;7.582;2023-04-15T04:02:25;4.90;99.90
21678;DHT22;11000;50.360;7.582;2023-04-15T04:04:47;4.90;99.90
21678;DHT22;11000;50.360;7.582;2023-04-15T04:07:07;4.90;99.90
21678;DHT22;11000;50.360;7.582;2023-04-15T04:09:28;4.80;99.90
21678;DHT22;11000;50.360;7.582;2023-04-15T04:11:48;4.80;99.90
21678;DHT22;11000;50.360;7.582;2023-04-15T04:14:09;4.90;99.90
21678;DHT22;11000;50.360;7.582;2023-04-15T04:16:29;4.80;99.90
21678;DHT22;11000;50.360;7.582;2023-04-15T04:18:50;4.80;99.90
21678;DHT22;11000;50.360;7.582;2023-04-15T04:21:11;4.80;99.90
21678;DHT22;11000;50.360;7.582;2023-04-15T04:23:32;4.80;99.90
21678;DHT22;11000;50.360;7.582;2023-04-15T04:25:52;4.80;99.90
21678;DHT22;11000;50.360;7.582;2023-04-15T04:28:13;4.70;99.90
21678;DHT22;11000;50.360;7.582;2023-04-15T04:30:34;4.70;99.90
21678;DHT22;11000;50.360;7.582;2023-04-15T04:32:55;4.70;99.90
21678;DHT22;11000;50.360;7.582;2023-04-15T04:35:15;4.60;99.90
21678;DHT22;11000;50.360;7.582;2023-04-15T04:37:36;4.60;99.90
21678;DHT22;11000;50.360;7.582;2023-04-15T04:39:57;4.60;99.90
21678;DHT22;11000;50.360;7.582;2023-04-15T04:42:17;4.50;99.90
21678;DHT22;11000;50.360;7.582;2023-04-15T04:44:38;4.50;99.90
21678;DHT22;11000;50.360;7.582;2023-04-15T04:46:59;4.50;99.90
21678;DHT22;11000;50.360;7.582;2023-04-15T04:49:19;4.60;99.90
21678;DHT22;11000;50.360;7.582;2023-04-15T04:51:40;4.60;99.90
21678;DHT22;11000;50.360;7.582;2023-04-15T04:54:01;4.60;99.90
21678;DHT22;11000;50.360;7.582;2023-04-15T04:56:22;4.60;99.90
21678;DHT22;11000;50.360;7.582;2023-04-15T04:58:42;4.70;99.90
21678;DHT22;11000;50.360;7.582;2023-04-15T05:01:03;4.70;99.90
21678;DHT22;11000;50.360;7.582;2023-04-15T05:03:23;4.70;99.90
21678;DHT22;11000;50.360;7.582;2023-04-15T05:05:44;4.70;99.90
21678;DHT22;11000;50.360;7.582;2023-04-15T05:08:05;4.70;99.90
21678;DHT22;11000;50.360;7.582;2023-04-15T05:10:26;4.70;99.90
21678;DHT22;11000;50.360;7.582;2023-04-15T05:12:46;4.70;99.90
21678;DHT22;11000;50.360;7.582;2023-04-15T05:15:07;4.70;99.90
21678;DHT22;11000;50.360;7.582;2023-04-15T05:17:28;4.80;99.90
21678;DHT22;11000;50.360;7.582;2023-04-15T05:19:51;4.80;99.90
21678;DHT22;11000;50.360;7.582;2023-04-15T05:22:13;4.80;99.90
21678;DHT22;11000;50.360;7.582;2023-04-15T05:24:33;4.90;99.90
21678;DHT22;11000;50.360;7.582;2023-04-15T05:26:54;4.90;99.90
21678;DHT22;11000;50.360;7.582;2023-04-15T05:29:15;4.90;99.90
21678;DHT22;11000;50.360;7.582;2023-04-15T05:31:36;4.90;99.90
21678;DHT22;11000;50.360;7.582;2023-04-15T05:33:56;5.00;99.90
21678;DHT22;11000;50.360;7.582;2023-04-15T05:36:17;5.00;99.90
21678;DHT22;11000;50.360;7.582;2023-04-15T05:38:37;4.90;99.90
21678;DHT22;11000;50.360;7.582;2023-04-15T05:40:58;4.90;99.90
21678;DHT22;11000;50.360;7.582;2023-04-15T05:43:18;5.00;99.90
21678;DHT22;11000;50.360;7.582;2023-04-15T05:45:39;5.00;99.90
21678;DHT22;11000;50.360;7.582;2023-04-15T05:47:59;5.00;99.90
21678;DHT22;11000;50.360;7.582;2023-04-15T05:50:20;5.00;99.90
21678;DHT22;11000;50.360;7.582;2023-04-15T05:52:41;5.10;99.90
21678;DHT22;11000;50.360;7.582;2023-04-15T05:55:02;5.10;99.90
21678;DHT22;11000;50.360;7.582;2023-04-15T05:57:22;5.20;99.90
21678;DHT22;11000;50.360;7.582;2023-04-15T05:59:43;5.30;99.90
21678;DHT22;11000;50.360;7.582;2023-04-15T06:02:04;5.50;99.90
21678;DHT22;11000;50.360;7.582;2023-04-15T06:04:25;5.80;99.90
21678;DHT22;11000;50.360;7.582;2023-04-15T06:06:46;6.20;99.90
21678;DHT22;11000;50.360;7.582;2023-04-15T06:09:06;6.60;99.90
21678;DHT22;11000;50.360;7.582;2023-04-15T06:11:27;7.00;99.90
21678;DHT22;11000;50.360;7.582;2023-04-15T06:13:47;7.10;99.90
21678;DHT22;11000;50.360;7.582;2023-04-15T06:16:08;7.10;99.90
21678;DHT22;11000;50.360;7.582;2023-04-15T06:18:28;7.30;99.90
21678;DHT22;11000;50.360;7.582;2023-04-15T06:20:49;7.60;99.90
21678;DHT22;11000;50.360;7.582;2023-04-15T06:23:10;7.60;99.90
21678;DHT22;11000;50.360;7.582;2023-04-15T06:25:31;7.80;99.90
21678;DHT22;11000;50.360;7.582;2023-04-15T06:27:51;8.30;99.90
21678;DHT22;11000;50.360;7.582;2023-04-15T06:30:12;8.80;99.90
21678;DHT22;11000;50.360;7.582;2023-04-15T06:32:32;9.00;99.90
21678;DHT22;11000;50.360;7.582;2023-04-15T06:34:53;9.50;99.90
21678;DHT22;11000;50.360;7.582;2023-04-15T06:37:14;9.70;99.90
21678;DHT22;11000;50.360;7.582;2023-04-15T06:39:35;9.90;99.90
21678;DHT22;11000;50.360;7.582;2023-04-15T06:41:56;10.00;99.90
21678;DHT22;11000;50.360;7.582;2023-04-15T06:44:17;10.00;99.90
21678;DHT22;11000;50.360;7.582;2023-04-15T06:46:37;10.10;99.90
21678;DHT22;11000;50.360;7.582;2023-04-15T06:48:58;10.20;99.90
21678;DHT22;11000;50.360;7.582;2023-04-15T06:51:18;10.40;99.90
21678;DHT22;11000;50.360;7.582;2023-04-15T06:53:39;10.80;99.90
21678;DHT22;11000;50.360;7.582;2023-04-15T06:56:01;11.10;99.90
21678;DHT22;11000;50.360;7.582;2023-04-15T06:58:22;11.10;99.90
21678;DHT22;11000;50.360;7.582;2023-04-15T07:00:42;11.20;99.90
21678;DHT22;11000;50.360;7.582;2023-04-15T07:03:04;11.50;99.90
21678;DHT22;11000;50.360;7.582;2023-04-15T07:05:24;11.60;99.90
21678;DHT22;11000;50.360;7.582;2023-04-15T07:07:45;11.60;99.90
21678;DHT22;11000;50.360;7.582;2023-04-15T07:10:06;11.80;99.90
21678;DHT22;11000;50.360;7.582;2023-04-15T07:12:27;12.00;99.90
21678;DHT22;11000;50.360;7.582;2023-04-15T07:14:47;12.00;99.90
21678;DHT22;11000;50.360;7.582;2023-04-15T07:17:08;12.20;99.90
21678;DHT22;11000;50.360;7.582;2023-04-15T07:19:29;11.90;99.90
21678;DHT22;11000;50.360;7.582;2023-04-15T07:21:50;12.10;99.90
21678;DHT22;11000;50.360;7.582;2023-04-15T07:24:10;12.20;99.90
21678;DHT22;11000;50.360;7.582;2023-04-15T07:26:31;12.40;99.90
21678;DHT22;11000;50.360;7.582;2023-04-15T07:28:51;12.60;99.90
21678;DHT22;11000;50.360;7.582;2023-04-15T07:31:12;12.20;99.90
21678;DHT22;11000;50.360;7.582;2023-04-15T07:33:33;12.00;99.90
21678;DHT22;11000;50.360;7.582;2023-04-15T07:35:53;12.20;99.90
21678;DHT22;11000;50.360;7.582;2023-04-15T07:38:14;11.90;99.90
21678;DHT22;11000;50.360;7.582;2023-04-15T07:40:34;12.10;99.90
21678;DHT22;11000;50.360;7.582;2023-04-15T07:42:55;11.30;99.90
21678;DHT22;11000;50.360;7.582;2023-04-15T07:45:16;11.20;99.90
21678;DHT22;11000;50.360;7.582;2023-04-15T07:47:37;11.40;99.90
21678;DHT22;11000;50.360;7.582;2023-04-15T07:49:57;11.60;99.90
21678;DHT22;11000;50.360;7.582;2023-04-15T07:52:18;11.00;99.90
21678;DHT22;11000;50.360;7.582;2023-04-15T07:54:38;11.10;99.90
21678;DHT22;11000;50.360;7.582;2023-04-15T07:56:59;11.10;99.90
21678;DHT22;11000;50.360;7.582;2023-04-15T07:59:19;11.40;99.90
21678;DHT22;11000;50.360;7.582;2023-04-15T08:01:40;11.50;99.90
21678;DHT22;11000;50.360;7.582;2023-04-15T08:04:02;11.70;99.90
21678;DHT22;11000;50.360;7.582;2023-04-15T08:06:22;11.90;99.90
21678;DHT22;11000;50.360;7.582;2023-04-15T08:08:43;12.20;99.90
21678;DHT22;11000;50.360;7.582;2023-04-15T08:11:04;12.30;99.90
21678;DHT22;11000;50.360;7.582;2023-04-15T08:13:25;12.20;99.90
21678;DHT22;11000;50.360;7.582;2023-04-15T08:16:12;12.60;99.90
21678;DHT22;11000;50.360;7.582;2023-04-15T08:18:33;13.00;99.90
21678;DHT22;11000;50.360;7.582;2023-04-15T08:20:54;13.30;99.90
21678;DHT22;11000;50.360;7.582;2023-04-15T08:23:14;13.70;99.90
21678;DHT22;11000;50.360;7.582;2023-04-15T08:25:35;13.60;99.90
21678;DHT22;11000;50.360;7.582;2023-04-15T08:27:56;13.80;99.90
21678;DHT22;11000;50.360;7.582;2023-04-15T08:30:17;14.20;99.90
21678;DHT22;11000;50.360;7.582;2023-04-15T08:32:40;14.50;99.90
21678;DHT22;11000;50.360;7.582;2023-04-15T08:35:01;14.20;99.90
21678;DHT22;11000;50.360;7.582;2023-04-15T08:37:21;14.30;99.90
21678;DHT22;11000;50.360;7.582;2023-04-15T08:39:42;14.10;99.90
21678;DHT22;11000;50.360;7.582;2023-04-15T08:42:10;13.90;99.90
21678;DHT22;11000;50.360;7.582;2023-04-15T08:44:33;13.60;99.90
21678;DHT22;11000;50.360;7.582;2023-04-15T08:46:55;13.40;99.90
21678;DHT22;11000;50.360;7.582;2023-04-15T08:49:16;13.60;99.90
21678;DHT22;11000;50.360;7.582;2023-04-15T08:51:41;13.30;99.90
21678;DHT22;11000;50.360;7.582;2023-04-15T08:54:03;13.20;99.90
21678;DHT22;11000;50.360;7.582;2023-04-15T08:56:24;13.10;99.90
21678;DHT22;11000;50.360;7.582;2023-04-15T08:58:46;13.10;99.90
21678;DHT22;11000;50.360;7.582;2023-04-15T09:01:08;13.00;99.90
21678;DHT22;11000;50.360;7.582;2023-04-15T09:03:29;13.30;99.90
21678;DHT22;11000;50.360;7.582;2023-04-15T09:05:51;13.40;99.90
21678;DHT22;11000;50.360;7.582;2023-04-15T09:08:12;13.20;99.90
21678;DHT22;11000;50.360;7.582;2023-04-15T09:10:32;13.30;99.90
21678;DHT22;11000;50.360;7.582;2023-04-15T09:12:54;13.50;99.90
21678;DHT22;11000;50.360;7.582;2023-04-15T09:15:14;13.60;99.90
21678;DHT22;11000;50.360;7.582;2023-04-15T09:17:41;13.60;99.90
21678;DHT22;11000;50.360;7.582;2023-04-15T09:20:13;13.70;99.90
21678;DHT22;11000;50.360;7.582;2023-04-15T09:22:34;13.90;99.90
21678;DHT22;11000;50.360;7.582;2023-04-15T09:24:55;14.30;99.90
21678;DHT22;11000;50.360;7.582;2023-04-15T09:27:15;14.70;99.90
21678;DHT22;11000;50.360;7.582;2023-04-15T09:29:36;14.90;99.90
21678;DHT22;11000;50.360;7.582;2023-04-15T09:32:09;15.00;99.90
21678;DHT22;11000;50.360;7.582;2023-04-15T09:34:36;15.30;99.90
21678;DHT22;11000;50.360;7.582;2023-04-15T09:36:57;15.20;99.90
21678;DHT22;11000;50.360;7.582;2023-04-15T09:39:19;15.30;99.90
21678;DHT22;11000;50.360;7.582;2023-04-15T09:41:44;15.40;99.90
21678;DHT22;11000;50.360;7.582;2023-04-15T09:44:06;15.20;97.10
21678;DHT22;11000;50.360;7.582;2023-04-15T09:46:41;15.40;99.90
21678;DHT22;11000;50.360;7.582;2023-04-15T09:49:11;15.90;93.80
21678;DHT22;11000;50.360;7.582;2023-04-15T09:51:36;15.70;92.50
21678;DHT22;11000;50.360;7.582;2023-04-15T09:53:57;15.90;93.80
21678;DHT22;11000;50.360;7.582;2023-04-15T09:56:21;15.80;92.30
21678;DHT22;11000;50.360;7.582;2023-04-15T09:58:42;15.70;84.60
21678;DHT22;11000;50.360;7.582;2023-04-15T10:01:03;15.70;82.90
21678;DHT22;11000;50.360;7.582;2023-04-15T10:05:49;16.00;86.50
21678;DHT22;11000;50.360;7.582;2023-04-15T10:08:11;15.60;86.50
21678;DHT22;11000;50.360;7.582;2023-04-15T10:10:31;15.80;85.60
21678;DHT22;11000;50.360;7.582;2023-04-15T10:12:53;15.50;83.30
21678;DHT22;11000;50.360;7.582;2023-04-15T10:15:15;15.50;82.80
21678;DHT22;11000;50.360;7.582;2023-04-15T10:17:37;15.70;85.50
21678;DHT22;11000;50.360;7.582;2023-04-15T10:20:04;15.80;79.20
21678;DHT22;11000;50.360;7.582;2023-04-15T10:22:25;15.50;77.80
21678;DHT22;11000;50.360;7.582;2023-04-15T10:24:47;15.40;84.10
21678;DHT22;11000;50.360;7.582;2023-04-15T10:27:09;15.40;82.30
21678;DHT22;11000;50.360;7.582;2023-04-15T10:29:30;15.40;82.60
21678;DHT22;11000;50.360;7.582;2023-04-15T10:31:52;15.30;82.70
21678;DHT22;11000;50.360;7.582;2023-04-15T10:34:14;15.30;82.20
21678;DHT22;11000;50.360;7.582;2023-04-15T10:36:35;15.80;83.80
21678;DHT22;11000;50.360;7.582;2023-04-15T10:38:56;15.80;81.80
21678;DHT22;11000;50.360;7.582;2023-04-15T10:41:20;15.90;81.80
21678;DHT22;11000;50.360;7.582;2023-04-15T10:43:52;16.10;82.90
21678;DHT22;11000;50.360;7.582;2023-04-15T10:46:20;16.10;81.40
21678;DHT22;11000;50.360;7.582;2023-04-15T10:48:47;16.30;79.40
21678;DHT22;11000;50.360;7.582;2023-04-15T10:51:08;16.00;77.80
21678;DHT22;11000;50.360;7.582;2023-04-15T10:53:29;16.00;77.30
21678;DHT22;11000;50.360;7.582;2023-04-15T10:55:50;16.20;77.00
21678;DHT22;11000;50.360;7.582;2023-04-15T10:58:10;16.60;73.30
21678;DHT22;11000;50.360;7.582;2023-04-15T11:00:32;16.90;69.70
21678;DHT22;11000;50.360;7.582;2023-04-15T11:03:03;16.60;69.30
21678;DHT22;11000;50.360;7.582;2023-04-15T11:05:50;16.90;69.20
21678;DHT22;11000;50.360;7.582;2023-04-15T11:08:12;16.40;69.20
21678;DHT22;11000;50.360;7.582;2023-04-15T11:12:57;15.80;72.40
21678;DHT22;11000;50.360;7.582;2023-04-15T11:15:34;15.80;74.20
21678;DHT22;11000;50.360;7.582;2023-04-15T11:17:58;15.40;77.70
21678;DHT22;11000;50.360;7.582;2023-04-15T11:20:19;15.30;79.60
21678;DHT22;11000;50.360;7.582;2023-04-15T11:22:49;15.10;80.30
21678;DHT22;11000;50.360;7.582;2023-04-15T11:25:10;15.10;83.00
21678;DHT22;11000;50.360;7.582;2023-04-15T11:27:41;15.30;83.10
21678;DHT22;11000;50.360;7.582;2023-04-15T11:30:01;15.20;83.70
21678;DHT22;11000;50.360;7.582;2023-04-15T11:32:34;14.90;85.80
21678;DHT22;11000;50.360;7.582;2023-04-15T11:34:55;15.00;86.60
21678;DHT22;11000;50.360;7.582;2023-04-15T11:37:15;15.20;91.00
21678;DHT22;11000;50.360;7.582;2023-04-15T11:39:36;15.00;88.30
21678;DHT22;11000;50.360;7.582;2023-04-15T11:41:57;14.90;90.70
21678;DHT22;11000;50.360;7.582;2023-04-15T11:44:17;14.90;93.00
21678;DHT22;11000;50.360;7.582;2023-04-15T11:46:38;15.00;93.70
21678;DHT22;11000;50.360;7.582;2023-04-15T11:48:58;15.00;93.90
21678;DHT22;11000;50.360;7.582;2023-04-15T11:51:19;15.00;93.80
21678;DHT22;11000;50.360;7.582;2023-04-15T11:53:42;15.10;93.20
21678;DHT22;11000;50.360;7.582;2023-04-15T11:56:04;15.20;91.80
21678;DHT22;11000;50.360;7.582;2023-04-15T11:58:25;15.00;91.70
21678;DHT22;11000;50.360;7.582;2023-04-15T12:00:58;14.60;92.90
21678;DHT22;11000;50.360;7.582;2023-04-15T12:03:27;14.50;93.90
21678;DHT22;11000;50.360;7.582;2023-04-15T12:16:37;15.20;96.70
21678;DHT22;11000;50.360;7.582;2023-04-15T12:19:05;15.50;96.80
21678;DHT22;11000;50.360;7.582;2023-04-15T12:21:33;15.70;95.00
21678;DHT22;11000;50.360;7.582;2023-04-15T12:23:56;15.80;95.60
21678;DHT22;11000;50.360;7.582;2023-04-15T12:26:17;15.70;95.50
21678;DHT22;11000;50.360;7.582;2023-04-15T12:28:40;15.40;97.50
21678;DHT22;11000;50.360;7.582;2023-04-15T12:31:08;15.30;99.80
21678;DHT22;11000;50.360;7.582;2023-04-15T12:33:32;14.80;99.90
21678;DHT22;11000;50.360;7.582;2023-04-15T12:35:53;14.60;99.90
21678;DHT22;11000;50.360;7.582;2023-04-15T12:38:14;14.50;99.90
21678;DHT22;11000;50.360;7.582;2023-04-15T12:40:36;14.50;99.90
21678;DHT22;11000;50.360;7.582;2023-04-15T12:42:57;14.40;99.90
21678;DHT22;11000;50.360;7.582;2023-04-15T12:45:19;14.20;99.90
21678;DHT22;11000;50.360;7.582;2023-04-15T12:47:40;14.10;99.90
21678;DHT22;11000;50.360;7.582;2023-04-15T12:50:01;14.00;99.90
21678;DHT22;11000;50.360;7.582;2023-04-15T12:52:23;13.90;99.90
21678;DHT22;11000;50.360;7.582;2023-04-15T12:54:44;13.80;99.90
21678;DHT22;11000;50.360;7.582;2023-04-15T12:57:05;13.80;99.90
21678;DHT22;11000;50.360;7.582;2023-04-15T12:59:27;13.80;99.90
21678;DHT22;11000;50.360;7.582;2023-04-15T13:01:51;13.80;99.90
21678;DHT22;11000;50.360;7.582;2023-04-15T13:04:13;13.80;99.90
21678;DHT22;11000;50.360;7.582;2023-04-15T13:06:34;14.00;99.90
21678;DHT22;11000;50.360;7.582;2023-04-15T13:08:55;14.00;99.90
21678;DHT22;11000;50.360;7.582;2023-04-15T13:11:16;14.10;99.90
21678;DHT22;11000;50.360;7.582;2023-04-15T13:13:36;13.90;99.90
21678;DHT22;11000;50.360;7.582;2023-04-15T13:15:57;13.80;99.90
21678;DHT22;11000;50.360;7.582;2023-04-15T13:18:18;13.60;99.90
21678;DHT22;11000;50.360;7.582;2023-04-15T13:20:39;13.20;99.90
21678;DHT22;11000;50.360;7.582;2023-04-15T13:23:00;12.90;99.90
21678;DHT22;11000;50.360;7.582;2023-04-15T13:25:21;12.80;99.90
21678;DHT22;11000;50.360;7.582;2023-04-15T13:27:42;12.70;99.90
21678;DHT22;11000;50.360;7.582;2023-04-15T13:30:04;12.80;99.90
21678;DHT22;11000;50.360;7.582;2023-04-15T13:32:25;12.80;99.90
21678;DHT22;11000;50.360;7.582;2023-04-15T13:34:45;12.70;99.90
21678;DHT22;11000;50.360;7.582;2023-04-15T13:37:08;12.60;99.90
21678;DHT22;11000;50.360;7.582;2023-04-15T13:39:29;12.60;99.90
21678;DHT22;11000;50.360;7.582;2023-04-15T13:41:50;12.60;99.90
21678;DHT22;11000;50.360;7.582;2023-04-15T13:44:10;12.60;99.90
21678;DHT22;11000;50.360;7.582;2023-04-15T13:46:33;12.50;99.90
21678;DHT22;11000;50.360;7.582;2023-04-15T13:48:53;12.50;99.90
21678;DHT22;11000;50.360;7.582;2023-04-15T13:51:14;12.60;99.90
21678;DHT22;11000;50.360;7.582;2023-04-15T13:53:35;12.50;99.90
21678;DHT22;11000;50.360;7.582;2023-04-15T13:55:56;12.50;99.90
21678;DHT22;11000;50.360;7.582;2023-04-15T13:58:17;12.50;99.90
21678;DHT22;11000;50.360;7.582;2023-04-15T14:00:37;12.30;99.90
21678;DHT22;11000;50.360;7.582;2023-04-15T14:02:58;12.30;99.90
21678;DHT22;11000;50.360;7.582;2023-04-15T14:05:19;12.40;99.90
21678;DHT22;11000;50.360;7.582;2023-04-15T14:07:41;12.30;99.90
21678;DHT22;11000;50.360;7.582;2023-04-15T14:10:05;12.40;99.90
21678;DHT22;11000;50.360;7.582;2023-04-15T14:12:26;12.30;99.90
21678;DHT22;11000;50.360;7.582;2023-04-15T14:14:46;12.30;99.90
21678;DHT22;11000;50.360;7.582;2023-04-15T14:17:07;12.30;99.90
21678;DHT22;11000;50.360;7.582;2023-04-15T14:19:29;12.20;99.90
21678;DHT22;11000;50.360;7.582;2023-04-15T14:21:50;12.20;99.90
21678;DHT22;11000;50.360;7.582;2023-04-15T14:24:13;12.10;99.90
21678;DHT22;11000;50.360;7.582;2023-04-15T14:26:33;12.00;99.90
21678;DHT22;11000;50.360;7.582;2023-04-15T14:28:54;11.90;99.90
21678;DHT22;11000;50.360;7.582;2023-04-15T14:31:15;11.90;99.90
21678;DHT22;11000;50.360;7.582;2023-04-15T14:33:39;12.00;99.90
21678;DHT22;11000;50.360;7.582;2023-04-15T14:36:08;11.90;99.90
21678;DHT22;11000;50.360;7.582;2023-04-15T14:38:30;11.90;99.90
21678;DHT22;11000;50.360;7.582;2023-04-15T14:40:50;11.90;99.90
21678;DHT22;11000;50.360;7.582;2023-04-15T14:43:12;11.80;99.90
21678;DHT22;11000;50.360;7.582;2023-04-15T14:45:36;11.80;99.90
21678;DHT22;11000;50.360;7.582;2023-04-15T14:47:58;11.70;99.90
21678;DHT22;11000;50.360;7.582;2023-04-15T14:50:19;11.60;99.90
21678;DHT22;11000;50.360;7.582;2023-04-15T14:52:40;11.60;99.90
21678;DHT22;11000;50.360;7.582;2023-04-15T14:55:02;11.50;99.90
21678;DHT22;11000;50.360;7.582;2023-04-15T14:57:22;11.50;99.90
21678;DHT22;11000;50.360;7.582;2023-04-15T14:59:43;11.30;99.90
21678;DHT22;11000;50.360;7.582;2023-04-15T15:02:04;11.30;99.90
21678;DHT22;11000;50.360;7.582;2023-04-15T15:04:25;11.30;99.90
21678;DHT22;11000;50.360;7.582;2023-04-15T15:06:45;11.20;99.90
21678;DHT22;11000;50.360;7.582;2023-04-15T15:09:07;11.10;99.90
21678;DHT22;11000;50.360;7.582;2023-04-15T15:11:29;11.10;99.90
21678;DHT22;11000;50.360;7.582;2023-04-15T15:13:50;11.10;99.90
21678;DHT22;11000;50.360;7.582;2023-04-15T15:16:10;11.20;99.90